sensor_id;sensor_type;location;lat;lon;timestamp;P1;durP1;ratioP1;P2;durP2;ratioP2
84168;SDS011;74295;50.146;8.794;2024-02-16T00:08:41;6.80;;;2.97;;
84168;SDS011;74295;50.146;8.794;2024-02-16T00:18:46;6.67;;;3.10;;
84168;SDS011;74295;50.146;8.794;2024-02-16T00:28:49;9.13;;;3.50;;
84168;SDS011;74295;50.146;8.794;2024-02-16T00:38:53;8.13;;;4.53;;
84168;SDS011;74295;50.146;8.794;2024-02-16T00:48:56;7.03;;;4.20;;
84168;SDS011;74295;50.146;8.794;2024-02-16T00:59:00;8.53;;;3.83;;
84168;SDS011;74295;50.146;8.794;2024-02-16T01:09:03;7.07;;;3.80;;
84168;SDS011;74295;50.146;8.794;2024-02-16T01:19:07;9.40;;;3.73;;
84168;SDS011;74295;50.146;8.794;2024-02-16T01:29:11;6.37;;;3.20;;
84168;SDS011;74295;50.146;8.794;2024-02-16T01:39:15;4.47;;;2.70;;
84168;SDS011;74295;50.146;8.794;2024-02-16T01:49:18;10.63;;;3.70;;
84168;SDS011;74295;50.146;8.794;2024-02-16T01:59:22;6.47;;;3.27;;
84168;SDS011;74295;50.146;8.794;2024-02-16T02:09:25;3.30;;;2.60;;
84168;SDS011;74295;50.146;8.794;2024-02-16T02:19:30;6.80;;;3.10;;
84168;SDS011;74295;50.146;8.794;2024-02-16T02:29:34;8.17;;;2.70;;
84168;SDS011;74295;50.146;8.794;2024-02-16T02:39:37;3.43;;;2.10;;
84168;SDS011;74295;50.146;8.794;2024-02-16T02:49:41;6.10;;;2.87;;
84168;SDS011;74295;50.146;8.794;2024-02-16T02:59:44;8.93;;;2.67;;
84168;SDS011;74295;50.146;8.794;2024-02-16T03:09:48;6.63;;;2.37;;
84168;SDS011;74295;50.146;8.794;2024-02-16T03:19:51;7.57;;;2.93;;
84168;SDS011;74295;50.146;8.794;2024-02-16T03:29:57;6.10;;;3.40;;
84168;SDS011;74295;50.146;8.794;2024-02-16T03:39:59;6.93;;;4.20;;
84168;SDS011;74295;50.146;8.794;2024-02-16T03:50:04;5.23;;;2.87;;
84168;SDS011;74295;50.146;8.794;2024-02-16T04:00:08;4.33;;;1.97;;
84168;SDS011;74295;50.146;8.794;2024-02-16T04:10:15;6.00;;;3.27;;
84168;SDS011;74295;50.146;8.794;2024-02-16T04:20:17;17.03;;;13.97;;
84168;SDS011;74295;50.146;8.794;2024-02-16T04:30:22;9.20;;;5.90;;
84168;SDS011;74295;50.146;8.794;2024-02-16T04:40:25;5.40;;;2.70;;
84168;SDS011;74295;50.146;8.794;2024-02-16T04:50:29;5.23;;;2.97;;
84168;SDS011;74295;50.146;8.794;2024-02-16T05:00:32;4.97;;;2.30;;
84168;SDS011;74295;50.146;8.794;2024-02-16T05:10:37;6.30;;;4.10;;
84168;SDS011;74295;50.146;8.794;2024-02-16T05:20:39;6.70;;;2.97;;
84168;SDS011;74295;50.146;8.794;2024-02-16T05:30:44;6.50;;;3.00;;
84168;SDS011;74295;50.146;8.794;2024-02-16T05:40:46;4.57;;;3.33;;
84168;SDS011;74295;50.146;8.794;2024-02-16T05:50:59;6.67;;;3.00;;
84168;SDS011;74295;50.146;8.794;2024-02-16T06:01:03;6.10;;;3.90;;
84168;SDS011;74295;50.146;8.794;2024-02-16T06:11:08;14.10;;;7.23;;
84168;SDS011;74295;50.146;8.794;2024-02-16T06:21:11;9.27;;;6.90;;
84168;SDS011;74295;50.146;8.794;2024-02-16T06:31:15;23.90;;;13.43;;
84168;SDS011;74295;50.146;8.794;2024-02-16T06:41:18;17.13;;;10.63;;
84168;SDS011;74295;50.146;8.794;2024-02-16T06:51:22;20.87;;;10.33;;
84168;SDS011;74295;50.146;8.794;2024-02-16T07:01:25;14.70;;;8.33;;
84168;SDS011;74295;50.146;8.794;2024-02-16T07:11:30;12.70;;;7.07;;
84168;SDS011;74295;50.146;8.794;2024-02-16T07:21:36;10.23;;;7.03;;
84168;SDS011;74295;50.146;8.794;2024-02-16T07:31:40;13.83;;;7.27;;
84168;SDS011;74295;50.146;8.794;2024-02-16T07:41:43;8.83;;;5.07;;
84168;SDS011;74295;50.146;8.794;2024-02-16T07:51:46;10.37;;;5.03;;
84168;SDS011;74295;50.146;8.794;2024-02-16T08:01:50;7.00;;;4.80;;
84168;SDS011;74295;50.146;8.794;2024-02-16T08:11:54;9.07;;;5.00;;
84168;SDS011;74295;50.146;8.794;2024-02-16T08:21:57;8.13;;;4.20;;
84168;SDS011;74295;50.146;8.794;2024-02-16T08:32:01;12.97;;;5.80;;
84168;SDS011;74295;50.146;8.794;2024-02-16T08:42:05;16.93;;;9.80;;
84168;SDS011;74295;50.146;8.794;2024-02-16T08:52:11;8.57;;;4.70;;
84168;SDS011;74295;50.146;8.794;2024-02-16T09:02:14;8.37;;;4.07;;
84168;SDS011;74295;50.146;8.794;2024-02-16T09:12:18;7.33;;;4.37;;
84168;SDS011;74295;50.146;8.794;2024-02-16T09:22:21;7.33;;;4.07;;
84168;SDS011;74295;50.146;8.794;2024-02-16T09:32:40;4.80;;;3.23;;
84168;SDS011;74295;50.146;8.794;2024-02-16T09:42:47;4.37;;;3.10;;
84168;SDS011;74295;50.146;8.794;2024-02-16T09:52:52;5.10;;;2.90;;
84168;SDS011;74295;50.146;8.794;2024-02-16T10:02:56;5.47;;;3.60;;
84168;SDS011;74295;50.146;8.794;2024-02-16T10:13:03;8.03;;;4.50;;
84168;SDS011;74295;50.146;8.794;2024-02-16T10:23:06;8.03;;;5.27;;
84168;SDS011;74295;50.146;8.794;2024-02-16T10:33:12;6.10;;;5.00;;
84168;SDS011;74295;50.146;8.794;2024-02-16T10:43:15;6.83;;;5.00;;
84168;SDS011;74295;50.146;8.794;2024-02-16T10:53:22;8.10;;;4.72;;
84168;SDS011;74295;50.146;8.794;2024-02-16T11:03:28;6.53;;;3.83;;
84168;SDS011;74295;50.146;8.794;2024-02-16T11:13:33;5.35;;;3.47;;
84168;SDS011;74295;50.146;8.794;2024-02-16T11:23:37;6.35;;;3.80;;
84168;SDS011;74295;50.146;8.794;2024-02-16T11:33:46;8.25;;;3.17;;
84168;SDS011;74295;50.146;8.794;2024-02-16T11:43:49;7.30;;;3.40;;
84168;SDS011;74295;50.146;8.794;2024-02-16T11:53:56;3.63;;;2.58;;
84168;SDS011;74295;50.146;8.794;2024-02-16T12:03:59;6.22;;;3.25;;
84168;SDS011;74295;50.146;8.794;2024-02-16T12:14:03;6.15;;;3.05;;
84168;SDS011;74295;50.146;8.794;2024-02-16T12:24:06;7.05;;;3.00;;
84168;SDS011;74295;50.146;8.794;2024-02-16T12:34:10;9.25;;;4.13;;
84168;SDS011;74295;50.146;8.794;2024-02-16T12:44:14;8.02;;;3.17;;
84168;SDS011;74295;50.146;8.794;2024-02-16T12:54:18;4.22;;;2.40;;
84168;SDS011;74295;50.146;8.794;2024-02-16T13:04:21;4.55;;;2.50;;
84168;SDS011;74295;50.146;8.794;2024-02-16T13:14:25;4.00;;;2.67;;
84168;SDS011;74295;50.146;8.794;2024-02-16T13:24:28;6.13;;;3.47;;
84168;SDS011;74295;50.146;8.794;2024-02-16T13:34:33;4.53;;;2.60;;
84168;SDS011;74295;50.146;8.794;2024-02-16T13:44:35;5.97;;;2.15;;
84168;SDS011;74295;50.146;8.794;2024-02-16T13:54:40;4.43;;;2.60;;
84168;SDS011;74295;50.146;8.794;2024-02-16T14:04:43;6.28;;;2.72;;
84168;SDS011;74295;50.146;8.794;2024-02-16T14:14:48;5.05;;;2.17;;
84168;SDS011;74295;50.146;8.794;2024-02-16T14:24:51;9.27;;;3.00;;
84168;SDS011;74295;50.146;8.794;2024-02-16T14:34:55;4.30;;;2.25;;
84168;SDS011;74295;50.146;8.794;2024-02-16T14:44:58;7.95;;;3.50;;
84168;SDS011;74295;50.146;8.794;2024-02-16T14:55:02;7.32;;;2.60;;
84168;SDS011;74295;50.146;8.794;2024-02-16T15:05:06;4.03;;;2.40;;
84168;SDS011;74295;50.146;8.794;2024-02-16T15:15:11;9.48;;;2.40;;
84168;SDS011;74295;50.146;8.794;2024-02-16T15:25:14;6.43;;;2.67;;
84168;SDS011;74295;50.146;8.794;2024-02-16T15:35:19;11.45;;;7.30;;
84168;SDS011;74295;50.146;8.794;2024-02-16T15:45:22;15.18;;;9.15;;
84168;SDS011;74295;50.146;8.794;2024-02-16T15:55:26;11.02;;;3.58;;
84168;SDS011;74295;50.146;8.794;2024-02-16T16:05:29;8.23;;;5.35;;
84168;SDS011;74295;50.146;8.794;2024-02-16T16:15:36;9.68;;;4.53;;
84168;SDS011;74295;50.146;8.794;2024-02-16T16:25:39;14.40;;;8.07;;
84168;SDS011;74295;50.146;8.794;2024-02-16T16:35:43;8.38;;;5.07;;
84168;SDS011;74295;50.146;8.794;2024-02-16T16:45:45;11.67;;;9.27;;
84168;SDS011;74295;50.146;8.794;2024-02-16T16:55:50;9.00;;;6.95;;
84168;SDS011;74295;50.146;8.794;2024-02-16T17:05:53;9.60;;;4.30;;
84168;SDS011;74295;50.146;8.794;2024-02-16T17:15:57;8.10;;;5.87;;
84168;SDS011;74295;50.146;8.794;2024-02-16T17:26:01;10.57;;;4.33;;
84168;SDS011;74295;50.146;8.794;2024-02-16T17:36:06;7.90;;;3.60;;
84168;SDS011;74295;50.146;8.794;2024-02-16T17:46:09;10.77;;;4.70;;
84168;SDS011;74295;50.146;8.794;2024-02-16T17:56:13;8.73;;;4.83;;
84168;SDS011;74295;50.146;8.794;2024-02-16T18:06:16;9.93;;;3.93;;
84168;SDS011;74295;50.146;8.794;2024-02-16T18:16:20;10.13;;;4.50;;
84168;SDS011;74295;50.146;8.794;2024-02-16T18:26:28;8.17;;;6.07;;
84168;SDS011;74295;50.146;8.794;2024-02-16T18:36:34;8.20;;;6.30;;
84168;SDS011;74295;50.146;8.794;2024-02-16T18:46:36;5.40;;;4.33;;
84168;SDS011;74295;50.146;8.794;2024-02-16T18:56:40;8.17;;;4.53;;
84168;SDS011;74295;50.146;8.794;2024-02-16T19:06:43;12.47;;;6.57;;
84168;SDS011;74295;50.146;8.794;2024-02-16T19:16:48;10.83;;;6.27;;
84168;SDS011;74295;50.146;8.794;2024-02-16T19:26:50;16.80;;;6.10;;
84168;SDS011;74295;50.146;8.794;2024-02-16T19:36:54;11.70;;;6.50;;
84168;SDS011;74295;50.146;8.794;2024-02-16T19:46:57;10.47;;;6.50;;
84168;SDS011;74295;50.146;8.794;2024-02-16T19:57:01;9.20;;;6.73;;
84168;SDS011;74295;50.146;8.794;2024-02-16T20:07:04;15.20;;;9.17;;
84168;SDS011;74295;50.146;8.794;2024-02-16T20:17:08;12.60;;;8.50;;
84168;SDS011;74295;50.146;8.794;2024-02-16T20:27:11;17.73;;;11.47;;
84168;SDS011;74295;50.146;8.794;2024-02-16T20:37:16;14.67;;;10.03;;
84168;SDS011;74295;50.146;8.794;2024-02-16T20:47:19;15.33;;;11.63;;
84168;SDS011;74295;50.146;8.794;2024-02-16T20:57:23;14.47;;;10.83;;
84168;SDS011;74295;50.146;8.794;2024-02-16T21:07:25;15.40;;;12.60;;
84168;SDS011;74295;50.146;8.794;2024-02-16T21:17:31;15.47;;;13.27;;
84168;SDS011;74295;50.146;8.794;2024-02-16T21:27:33;15.80;;;13.93;;
84168;SDS011;74295;50.146;8.794;2024-02-16T21:37:37;20.70;;;13.77;;
84168;SDS011;74295;50.146;8.794;2024-02-16T21:47:40;13.87;;;10.23;;
84168;SDS011;74295;50.146;8.794;2024-02-16T21:57:44;9.23;;;8.27;;
84168;SDS011;74295;50.146;8.794;2024-02-16T22:07:47;6.93;;;6.07;;
84168;SDS011;74295;50.146;8.794;2024-02-16T22:17:51;9.97;;;6.97;;
84168;SDS011;74295;50.146;8.794;2024-02-16T22:27:53;4.73;;;4.13;;
84168;SDS011;74295;50.146;8.794;2024-02-16T22:37:57;3.03;;;2.50;;
84168;SDS011;74295;50.146;8.794;2024-02-16T22:48:00;4.80;;;2.97;;
84168;SDS011;74295;50.146;8.794;2024-02-16T22:58:06;3.07;;;2.77;;
84168;SDS011;74295;50.146;8.794;2024-02-16T23:08:10;5.43;;;4.93;;
84168;SDS011;74295;50.146;8.794;2024-02-16T23:18:15;9.03;;;6.27;;
84168;SDS011;74295;50.146;8.794;2024-02-16T23:28:19;14.70;;;8.60;;
84168;SDS011;74295;50.146;8.794;2024-02-16T23:38:23;8.87;;;7.73;;
84168;SDS011;74295;50.146;8.794;2024-02-16T23:48:25;11.23;;;9.70;;
84168;SDS011;74295;50.146;8.794;2024-02-16T23:58:31;10.90;;;9.60;;
